sensor_id;sensor_type;location;lat;lon;timestamp;temperature;humidity
47354;DHT22;50657;48.830;2.282;2022-10-20T00:00:51;23.60;65.10
47354;DHT22;50657;48.830;2.282;2022-10-20T00:03:19;23.60;65.00
47354;DHT22;50657;48.830;2.282;2022-10-20T00:05:46;23.70;65.10
47354;DHT22;50657;48.830;2.282;2022-10-20T00:08:13;23.70;65.00
47354;DHT22;50657;48.830;2.282;2022-10-20T00:10:41;23.70;64.90
47354;DHT22;50657;48.830;2.282;2022-10-20T00:13:09;23.70;64.80
47354;DHT22;50657;48.830;2.282;2022-10-20T00:15:36;23.70;64.70
47354;DHT22;50657;48.830;2.282;2022-10-20T00:18:03;23.80;64.70
47354;DHT22;50657;48.830;2.282;2022-10-20T00:20:30;23.80;64.60
47354;DHT22;50657;48.830;2.282;2022-10-20T00:22:57;23.80;64.50
47354;DHT22;50657;48.830;2.282;2022-10-20T00:25:24;23.80;64.50
47354;DHT22;50657;48.830;2.282;2022-10-20T00:27:51;23.80;65.00
47354;DHT22;50657;48.830;2.282;2022-10-20T00:30:20;23.80;64.30
47354;DHT22;50657;48.830;2.282;2022-10-20T00:32:47;23.80;64.30
47354;DHT22;50657;48.830;2.282;2022-10-20T00:35:14;23.80;64.20
47354;DHT22;50657;48.830;2.282;2022-10-20T00:37:41;23.80;64.10
47354;DHT22;50657;48.830;2.282;2022-10-20T00:40:09;23.80;64.00
47354;DHT22;50657;48.830;2.282;2022-10-20T00:42:36;23.90;64.00
47354;DHT22;50657;48.830;2.282;2022-10-20T00:45:11;23.90;63.90
47354;DHT22;50657;48.830;2.282;2022-10-20T00:47:43;23.90;63.80
47354;DHT22;50657;48.830;2.282;2022-10-20T00:50:14;23.90;63.80
47354;DHT22;50657;48.830;2.282;2022-10-20T00:52:42;23.90;63.80
47354;DHT22;50657;48.830;2.282;2022-10-20T00:55:12;23.90;63.70
47354;DHT22;50657;48.830;2.282;2022-10-20T00:57:41;23.90;63.60
47354;DHT22;50657;48.830;2.282;2022-10-20T01:00:11;23.90;63.60
47354;DHT22;50657;48.830;2.282;2022-10-20T01:02:42;23.90;63.60
47354;DHT22;50657;48.830;2.282;2022-10-20T01:05:09;23.90;63.50
47354;DHT22;50657;48.830;2.282;2022-10-20T01:07:37;23.90;63.40
47354;DHT22;50657;48.830;2.282;2022-10-20T01:10:05;24.00;63.40
47354;DHT22;50657;48.830;2.282;2022-10-20T01:12:37;24.00;63.40
47354;DHT22;50657;48.830;2.282;2022-10-20T01:15:16;24.00;63.30
47354;DHT22;50657;48.830;2.282;2022-10-20T01:17:50;24.00;63.20
47354;DHT22;50657;48.830;2.282;2022-10-20T01:20:31;24.00;63.20
47354;DHT22;50657;48.830;2.282;2022-10-20T01:23:26;24.00;63.20
47354;DHT22;50657;48.830;2.282;2022-10-20T01:26:27;24.00;63.10
47354;DHT22;50657;48.830;2.282;2022-10-20T01:28:59;24.00;63.10
47354;DHT22;50657;48.830;2.282;2022-10-20T01:31:34;24.00;63.10
47354;DHT22;50657;48.830;2.282;2022-10-20T01:34:08;24.00;63.10
47354;DHT22;50657;48.830;2.282;2022-10-20T01:36:39;24.00;63.10
47354;DHT22;50657;48.830;2.282;2022-10-20T01:39:11;24.00;63.00
47354;DHT22;50657;48.830;2.282;2022-10-20T01:41:44;24.00;63.00
47354;DHT22;50657;48.830;2.282;2022-10-20T01:44:15;24.00;62.90
47354;DHT22;50657;48.830;2.282;2022-10-20T01:46:44;24.00;62.90
47354;DHT22;50657;48.830;2.282;2022-10-20T01:49:12;24.00;62.90
47354;DHT22;50657;48.830;2.282;2022-10-20T01:51:40;24.00;62.90
47354;DHT22;50657;48.830;2.282;2022-10-20T01:54:19;24.00;62.80
47354;DHT22;50657;48.830;2.282;2022-10-20T01:56:55;24.00;62.70
47354;DHT22;50657;48.830;2.282;2022-10-20T01:59:32;24.00;62.70
47354;DHT22;50657;48.830;2.282;2022-10-20T02:02:15;24.00;62.70
47354;DHT22;50657;48.830;2.282;2022-10-20T02:04:56;24.00;62.70
47354;DHT22;50657;48.830;2.282;2022-10-20T02:07:30;24.00;62.70
47354;DHT22;50657;48.830;2.282;2022-10-20T02:10:03;24.00;62.80
47354;DHT22;50657;48.830;2.282;2022-10-20T02:12:36;24.00;62.80
47354;DHT22;50657;48.830;2.282;2022-10-20T02:15:08;24.00;62.80
47354;DHT22;50657;48.830;2.282;2022-10-20T02:17:38;24.00;62.80
47354;DHT22;50657;48.830;2.282;2022-10-20T02:20:06;24.00;62.80
47354;DHT22;50657;48.830;2.282;2022-10-20T02:22:34;24.00;62.80
47354;DHT22;50657;48.830;2.282;2022-10-20T02:25:02;24.00;62.80
47354;DHT22;50657;48.830;2.282;2022-10-20T02:27:32;24.00;62.80
47354;DHT22;50657;48.830;2.282;2022-10-20T02:30:03;24.00;62.70
47354;DHT22;50657;48.830;2.282;2022-10-20T02:32:33;24.00;62.70
47354;DHT22;50657;48.830;2.282;2022-10-20T02:35:03;24.00;62.70
47354;DHT22;50657;48.830;2.282;2022-10-20T02:37:30;24.00;62.70
47354;DHT22;50657;48.830;2.282;2022-10-20T02:39:57;24.00;62.70
47354;DHT22;50657;48.830;2.282;2022-10-20T02:42:24;24.00;62.70
47354;DHT22;50657;48.830;2.282;2022-10-20T02:44:51;24.00;62.70
47354;DHT22;50657;48.830;2.282;2022-10-20T02:47:20;24.10;62.70
47354;DHT22;50657;48.830;2.282;2022-10-20T02:49:48;24.10;62.70
47354;DHT22;50657;48.830;2.282;2022-10-20T02:52:15;24.00;62.70
47354;DHT22;50657;48.830;2.282;2022-10-20T02:54:42;24.00;62.60
47354;DHT22;50657;48.830;2.282;2022-10-20T02:57:09;24.10;62.70
47354;DHT22;50657;48.830;2.282;2022-10-20T02:59:36;24.10;62.70
47354;DHT22;50657;48.830;2.282;2022-10-20T03:02:03;24.10;62.60
47354;DHT22;50657;48.830;2.282;2022-10-20T03:04:30;24.10;62.60
47354;DHT22;50657;48.830;2.282;2022-10-20T03:06:59;24.00;62.50
47354;DHT22;50657;48.830;2.282;2022-10-20T03:09:26;24.10;62.60
47354;DHT22;50657;48.830;2.282;2022-10-20T03:11:53;24.00;62.50
47354;DHT22;50657;48.830;2.282;2022-10-20T03:14:20;24.10;62.60
47354;DHT22;50657;48.830;2.282;2022-10-20T03:16:47;24.10;62.60
47354;DHT22;50657;48.830;2.282;2022-10-20T03:19:14;24.10;62.70
47354;DHT22;50657;48.830;2.282;2022-10-20T03:21:42;24.10;62.90
47354;DHT22;50657;48.830;2.282;2022-10-20T03:24:10;24.10;63.10
47354;DHT22;50657;48.830;2.282;2022-10-20T03:26:38;24.10;63.10
47354;DHT22;50657;48.830;2.282;2022-10-20T03:29:05;24.10;63.10
47354;DHT22;50657;48.830;2.282;2022-10-20T03:31:32;24.20;63.20
47354;DHT22;50657;48.830;2.282;2022-10-20T03:33:59;24.20;63.10
47354;DHT22;50657;48.830;2.282;2022-10-20T03:36:27;24.20;62.90
47354;DHT22;50657;48.830;2.282;2022-10-20T03:38:54;24.30;63.00
47354;DHT22;50657;48.830;2.282;2022-10-20T03:41:23;24.30;63.00
47354;DHT22;50657;48.830;2.282;2022-10-20T03:43:50;24.30;63.00
47354;DHT22;50657;48.830;2.282;2022-10-20T03:46:17;24.40;63.10
47354;DHT22;50657;48.830;2.282;2022-10-20T03:48:44;24.40;63.20
47354;DHT22;50657;48.830;2.282;2022-10-20T03:51:12;24.40;63.30
47354;DHT22;50657;48.830;2.282;2022-10-20T03:53:40;24.40;63.40
47354;DHT22;50657;48.830;2.282;2022-10-20T03:56:08;24.40;63.40
47354;DHT22;50657;48.830;2.282;2022-10-20T03:58:37;24.40;63.50
47354;DHT22;50657;48.830;2.282;2022-10-20T04:01:04;24.40;64.00
47354;DHT22;50657;48.830;2.282;2022-10-20T04:03:34;24.50;63.60
47354;DHT22;50657;48.830;2.282;2022-10-20T04:06:01;24.50;63.70
47354;DHT22;50657;48.830;2.282;2022-10-20T04:08:28;24.50;63.70
47354;DHT22;50657;48.830;2.282;2022-10-20T04:10:55;24.50;63.80
47354;DHT22;50657;48.830;2.282;2022-10-20T04:13:23;24.50;64.30
47354;DHT22;50657;48.830;2.282;2022-10-20T04:15:51;24.60;63.80
47354;DHT22;50657;48.830;2.282;2022-10-20T04:18:18;24.60;63.80
47354;DHT22;50657;48.830;2.282;2022-10-20T04:20:46;24.60;63.80
47354;DHT22;50657;48.830;2.282;2022-10-20T04:23:14;24.60;63.90
47354;DHT22;50657;48.830;2.282;2022-10-20T04:25:42;24.60;63.90
47354;DHT22;50657;48.830;2.282;2022-10-20T04:28:12;24.60;63.90
47354;DHT22;50657;48.830;2.282;2022-10-20T04:30:40;24.60;63.90
47354;DHT22;50657;48.830;2.282;2022-10-20T04:33:09;24.60;63.90
47354;DHT22;50657;48.830;2.282;2022-10-20T04:35:36;24.70;64.00
47354;DHT22;50657;48.830;2.282;2022-10-20T04:38:03;24.70;63.90
47354;DHT22;50657;48.830;2.282;2022-10-20T04:40:30;24.70;64.00
47354;DHT22;50657;48.830;2.282;2022-10-20T04:42:58;24.70;64.10
47354;DHT22;50657;48.830;2.282;2022-10-20T04:45:25;24.70;64.00
47354;DHT22;50657;48.830;2.282;2022-10-20T04:47:52;24.70;62.70
47354;DHT22;50657;48.830;2.282;2022-10-20T04:50:21;24.60;61.70
47354;DHT22;50657;48.830;2.282;2022-10-20T04:52:57;24.30;61.60
47354;DHT22;50657;48.830;2.282;2022-10-20T04:55:24;23.90;62.00
47354;DHT22;50657;48.830;2.282;2022-10-20T04:57:51;23.60;62.40
47354;DHT22;50657;48.830;2.282;2022-10-20T05:00:19;23.30;63.10
47354;DHT22;50657;48.830;2.282;2022-10-20T05:02:46;23.10;63.60
47354;DHT22;50657;48.830;2.282;2022-10-20T05:05:15;22.90;64.00
47354;DHT22;50657;48.830;2.282;2022-10-20T05:07:43;22.70;64.40
47354;DHT22;50657;48.830;2.282;2022-10-20T05:10:10;22.50;65.00
47354;DHT22;50657;48.830;2.282;2022-10-20T05:12:37;22.40;65.40
47354;DHT22;50657;48.830;2.282;2022-10-20T05:15:05;22.20;65.80
47354;DHT22;50657;48.830;2.282;2022-10-20T05:17:32;22.10;66.30
47354;DHT22;50657;48.830;2.282;2022-10-20T05:19:59;21.90;66.40
47354;DHT22;50657;48.830;2.282;2022-10-20T05:22:26;21.80;67.10
47354;DHT22;50657;48.830;2.282;2022-10-20T05:24:55;21.70;66.80
47354;DHT22;50657;48.830;2.282;2022-10-20T05:27:22;21.60;67.00
47354;DHT22;50657;48.830;2.282;2022-10-20T05:29:51;21.50;67.40
47354;DHT22;50657;48.830;2.282;2022-10-20T05:32:18;21.50;67.60
47354;DHT22;50657;48.830;2.282;2022-10-20T05:34:45;21.40;67.90
47354;DHT22;50657;48.830;2.282;2022-10-20T05:37:12;21.40;68.10
47354;DHT22;50657;48.830;2.282;2022-10-20T05:39:39;21.30;68.30
47354;DHT22;50657;48.830;2.282;2022-10-20T05:42:08;21.20;68.40
47354;DHT22;50657;48.830;2.282;2022-10-20T05:44:35;21.20;68.50
47354;DHT22;50657;48.830;2.282;2022-10-20T05:47:02;21.10;68.60
47354;DHT22;50657;48.830;2.282;2022-10-20T05:49:30;21.00;68.60
47354;DHT22;50657;48.830;2.282;2022-10-20T05:51:57;20.90;68.60
47354;DHT22;50657;48.830;2.282;2022-10-20T05:54:24;20.90;68.70
47354;DHT22;50657;48.830;2.282;2022-10-20T05:56:51;20.90;68.80
47354;DHT22;50657;48.830;2.282;2022-10-20T05:59:20;20.80;68.80
47354;DHT22;50657;48.830;2.282;2022-10-20T06:01:47;20.80;68.80
47354;DHT22;50657;48.830;2.282;2022-10-20T06:04:15;20.70;68.80
47354;DHT22;50657;48.830;2.282;2022-10-20T06:06:43;20.70;68.90
47354;DHT22;50657;48.830;2.282;2022-10-20T06:09:11;20.60;68.90
47354;DHT22;50657;48.830;2.282;2022-10-20T06:11:38;20.60;69.20
47354;DHT22;50657;48.830;2.282;2022-10-20T06:14:06;20.60;69.30
47354;DHT22;50657;48.830;2.282;2022-10-20T06:16:35;20.60;69.50
47354;DHT22;50657;48.830;2.282;2022-10-20T06:19:02;20.60;69.80
47354;DHT22;50657;48.830;2.282;2022-10-20T06:21:31;20.50;70.00
47354;DHT22;50657;48.830;2.282;2022-10-20T06:23:59;20.50;70.10
47354;DHT22;50657;48.830;2.282;2022-10-20T06:26:27;20.50;70.20
47354;DHT22;50657;48.830;2.282;2022-10-20T06:28:57;20.40;70.20
47354;DHT22;50657;48.830;2.282;2022-10-20T06:31:27;20.40;70.30
47354;DHT22;50657;48.830;2.282;2022-10-20T06:33:56;20.40;70.50
47354;DHT22;50657;48.830;2.282;2022-10-20T06:36:24;20.40;70.50
47354;DHT22;50657;48.830;2.282;2022-10-20T06:38:52;20.40;70.90
47354;DHT22;50657;48.830;2.282;2022-10-20T06:41:20;20.60;71.10
47354;DHT22;50657;48.830;2.282;2022-10-20T06:43:47;20.70;70.80
47354;DHT22;50657;48.830;2.282;2022-10-20T06:46:16;20.90;70.40
47354;DHT22;50657;48.830;2.282;2022-10-20T06:48:44;21.10;70.00
47354;DHT22;50657;48.830;2.282;2022-10-20T06:51:14;21.30;69.50
47354;DHT22;50657;48.830;2.282;2022-10-20T06:53:44;21.50;69.10
47354;DHT22;50657;48.830;2.282;2022-10-20T06:56:13;21.60;68.70
47354;DHT22;50657;48.830;2.282;2022-10-20T06:58:42;21.80;68.10
47354;DHT22;50657;48.830;2.282;2022-10-20T07:01:11;21.80;67.70
47354;DHT22;50657;48.830;2.282;2022-10-20T07:03:39;21.90;67.50
47354;DHT22;50657;48.830;2.282;2022-10-20T07:06:07;22.00;67.30
47354;DHT22;50657;48.830;2.282;2022-10-20T07:08:37;22.00;67.10
47354;DHT22;50657;48.830;2.282;2022-10-20T07:11:05;22.10;67.10
47354;DHT22;50657;48.830;2.282;2022-10-20T07:13:34;22.10;66.90
47354;DHT22;50657;48.830;2.282;2022-10-20T07:16:03;22.10;66.60
47354;DHT22;50657;48.830;2.282;2022-10-20T07:18:30;22.10;66.50
47354;DHT22;50657;48.830;2.282;2022-10-20T07:20:59;22.20;66.40
47354;DHT22;50657;48.830;2.282;2022-10-20T07:23:27;22.20;66.20
47354;DHT22;50657;48.830;2.282;2022-10-20T07:26:04;22.20;66.00
47354;DHT22;50657;48.830;2.282;2022-10-20T07:28:32;22.20;65.90
47354;DHT22;50657;48.830;2.282;2022-10-20T07:31:02;22.30;65.80
47354;DHT22;50657;48.830;2.282;2022-10-20T07:33:29;22.20;65.60
47354;DHT22;50657;48.830;2.282;2022-10-20T07:35:56;22.30;65.40
47354;DHT22;50657;48.830;2.282;2022-10-20T07:38:24;22.30;65.30
47354;DHT22;50657;48.830;2.282;2022-10-20T07:40:51;22.40;65.20
47354;DHT22;50657;48.830;2.282;2022-10-20T07:43:19;22.40;64.90
47354;DHT22;50657;48.830;2.282;2022-10-20T07:45:46;22.50;64.70
47354;DHT22;50657;48.830;2.282;2022-10-20T07:48:13;22.60;64.50
47354;DHT22;50657;48.830;2.282;2022-10-20T07:50:40;22.70;64.30
47354;DHT22;50657;48.830;2.282;2022-10-20T07:53:07;22.80;64.00
47354;DHT22;50657;48.830;2.282;2022-10-20T07:55:35;22.70;63.60
47354;DHT22;50657;48.830;2.282;2022-10-20T07:58:02;22.80;63.40
47354;DHT22;50657;48.830;2.282;2022-10-20T08:00:30;22.80;63.20
47354;DHT22;50657;48.830;2.282;2022-10-20T08:02:57;22.90;63.10
47354;DHT22;50657;48.830;2.282;2022-10-20T08:05:24;22.90;63.00
47354;DHT22;50657;48.830;2.282;2022-10-20T08:07:51;22.90;63.00
47354;DHT22;50657;48.830;2.282;2022-10-20T08:10:18;23.00;62.90
47354;DHT22;50657;48.830;2.282;2022-10-20T08:12:45;23.00;62.80
47354;DHT22;50657;48.830;2.282;2022-10-20T08:15:12;23.00;62.80
47354;DHT22;50657;48.830;2.282;2022-10-20T08:17:40;23.00;62.70
47354;DHT22;50657;48.830;2.282;2022-10-20T08:20:08;23.10;62.80
47354;DHT22;50657;48.830;2.282;2022-10-20T08:22:35;23.10;62.70
47354;DHT22;50657;48.830;2.282;2022-10-20T08:25:03;23.20;62.70
47354;DHT22;50657;48.830;2.282;2022-10-20T08:27:30;23.20;62.50
47354;DHT22;50657;48.830;2.282;2022-10-20T08:29:57;23.30;62.40
47354;DHT22;50657;48.830;2.282;2022-10-20T08:32:24;23.30;62.20
47354;DHT22;50657;48.830;2.282;2022-10-20T08:34:52;23.30;62.10
47354;DHT22;50657;48.830;2.282;2022-10-20T08:37:19;23.30;61.90
47354;DHT22;50657;48.830;2.282;2022-10-20T08:39:46;23.30;61.60
47354;DHT22;50657;48.830;2.282;2022-10-20T08:42:14;23.30;61.90
47354;DHT22;50657;48.830;2.282;2022-10-20T08:44:44;23.40;62.30
47354;DHT22;50657;48.830;2.282;2022-10-20T08:47:24;23.50;62.50
47354;DHT22;50657;48.830;2.282;2022-10-20T08:49:55;23.70;62.40
47354;DHT22;50657;48.830;2.282;2022-10-20T08:52:23;23.70;62.40
47354;DHT22;50657;48.830;2.282;2022-10-20T08:54:52;23.80;63.50
47354;DHT22;50657;48.830;2.282;2022-10-20T08:57:22;23.90;63.20
47354;DHT22;50657;48.830;2.282;2022-10-20T08:59:52;24.10;63.30
47354;DHT22;50657;48.830;2.282;2022-10-20T09:02:20;24.10;63.30
47354;DHT22;50657;48.830;2.282;2022-10-20T09:04:50;24.20;63.50
47354;DHT22;50657;48.830;2.282;2022-10-20T09:07:24;24.30;63.50
47354;DHT22;50657;48.830;2.282;2022-10-20T09:09:56;24.30;63.40
47354;DHT22;50657;48.830;2.282;2022-10-20T09:12:28;24.40;63.60
47354;DHT22;50657;48.830;2.282;2022-10-20T09:14:55;24.50;63.90
47354;DHT22;50657;48.830;2.282;2022-10-20T09:17:23;24.50;64.20
47354;DHT22;50657;48.830;2.282;2022-10-20T09:19:54;24.60;64.30
47354;DHT22;50657;48.830;2.282;2022-10-20T09:22:26;24.70;64.50
47354;DHT22;50657;48.830;2.282;2022-10-20T09:24:55;24.80;64.60
47354;DHT22;50657;48.830;2.282;2022-10-20T09:27:30;24.80;64.70
47354;DHT22;50657;48.830;2.282;2022-10-20T09:30:12;24.90;64.60
47354;DHT22;50657;48.830;2.282;2022-10-20T09:32:40;24.90;64.40
47354;DHT22;50657;48.830;2.282;2022-10-20T09:35:22;24.90;64.20
47354;DHT22;50657;48.830;2.282;2022-10-20T09:37:56;25.00;64.50
47354;DHT22;50657;48.830;2.282;2022-10-20T09:40:24;25.10;64.10
47354;DHT22;50657;48.830;2.282;2022-10-20T09:42:53;25.10;64.00
47354;DHT22;50657;48.830;2.282;2022-10-20T09:45:22;25.20;64.00
47354;DHT22;50657;48.830;2.282;2022-10-20T09:47:55;25.20;63.90
47354;DHT22;50657;48.830;2.282;2022-10-20T09:50:28;25.30;63.90
47354;DHT22;50657;48.830;2.282;2022-10-20T09:52:57;25.30;63.80
47354;DHT22;50657;48.830;2.282;2022-10-20T09:55:27;25.30;63.70
47354;DHT22;50657;48.830;2.282;2022-10-20T09:57:58;25.40;63.80
47354;DHT22;50657;48.830;2.282;2022-10-20T10:00:27;25.50;63.60
47354;DHT22;50657;48.830;2.282;2022-10-20T10:03:14;25.50;63.30
47354;DHT22;50657;48.830;2.282;2022-10-20T10:05:50;25.60;62.90
47354;DHT22;50657;48.830;2.282;2022-10-20T10:08:20;25.60;62.70
47354;DHT22;50657;48.830;2.282;2022-10-20T10:10:58;25.70;62.60
47354;DHT22;50657;48.830;2.282;2022-10-20T10:13:27;25.70;62.40
47354;DHT22;50657;48.830;2.282;2022-10-20T10:16:00;25.70;62.20
47354;DHT22;50657;48.830;2.282;2022-10-20T10:18:27;25.70;62.10
47354;DHT22;50657;48.830;2.282;2022-10-20T10:21:00;25.70;61.90
47354;DHT22;50657;48.830;2.282;2022-10-20T10:23:30;25.70;61.60
47354;DHT22;50657;48.830;2.282;2022-10-20T10:26:01;25.70;61.50
47354;DHT22;50657;48.830;2.282;2022-10-20T10:28:35;25.70;61.30
47354;DHT22;50657;48.830;2.282;2022-10-20T10:31:21;25.70;61.00
47354;DHT22;50657;48.830;2.282;2022-10-20T10:33:55;25.70;60.70
47354;DHT22;50657;48.830;2.282;2022-10-20T10:36:30;25.70;60.60
47354;DHT22;50657;48.830;2.282;2022-10-20T10:38:59;25.70;60.40
47354;DHT22;50657;48.830;2.282;2022-10-20T10:41:39;25.70;60.20
47354;DHT22;50657;48.830;2.282;2022-10-20T10:44:14;25.70;60.00
47354;DHT22;50657;48.830;2.282;2022-10-20T10:46:53;25.70;60.20
47354;DHT22;50657;48.830;2.282;2022-10-20T10:49:38;25.70;59.90
47354;DHT22;50657;48.830;2.282;2022-10-20T10:52:15;25.70;59.70
47354;DHT22;50657;48.830;2.282;2022-10-20T10:55:02;25.70;59.60
47354;DHT22;50657;48.830;2.282;2022-10-20T10:57:35;25.70;59.50
47354;DHT22;50657;48.830;2.282;2022-10-20T11:00:13;25.70;59.60
47354;DHT22;50657;48.830;2.282;2022-10-20T11:02:58;25.70;59.40
47354;DHT22;50657;48.830;2.282;2022-10-20T11:05:38;25.70;59.40
47354;DHT22;50657;48.830;2.282;2022-10-20T11:08:15;25.70;59.40
47354;DHT22;50657;48.830;2.282;2022-10-20T11:10:49;25.70;59.40
47354;DHT22;50657;48.830;2.282;2022-10-20T11:13:24;25.70;59.30
47354;DHT22;50657;48.830;2.282;2022-10-20T11:16:05;25.70;59.30
47354;DHT22;50657;48.830;2.282;2022-10-20T11:18:48;25.80;59.80
47354;DHT22;50657;48.830;2.282;2022-10-20T11:21:25;25.80;59.20
47354;DHT22;50657;48.830;2.282;2022-10-20T11:24:15;25.80;59.20
47354;DHT22;50657;48.830;2.282;2022-10-20T11:26:46;25.80;59.10
47354;DHT22;50657;48.830;2.282;2022-10-20T11:29:25;25.80;59.20
47354;DHT22;50657;48.830;2.282;2022-10-20T11:31:57;25.90;58.90
47354;DHT22;50657;48.830;2.282;2022-10-20T11:34:31;25.90;58.80
47354;DHT22;50657;48.830;2.282;2022-10-20T11:37:02;25.90;58.70
47354;DHT22;50657;48.830;2.282;2022-10-20T11:39:36;25.90;58.50
47354;DHT22;50657;48.830;2.282;2022-10-20T11:42:16;26.00;58.60
47354;DHT22;50657;48.830;2.282;2022-10-20T11:44:45;26.00;58.50
47354;DHT22;50657;48.830;2.282;2022-10-20T11:47:16;26.00;58.60
47354;DHT22;50657;48.830;2.282;2022-10-20T11:49:43;26.00;58.50
47354;DHT22;50657;48.830;2.282;2022-10-20T11:52:25;26.10;58.50
47354;DHT22;50657;48.830;2.282;2022-10-20T11:55:34;26.10;58.40
47354;DHT22;50657;48.830;2.282;2022-10-20T11:58:20;26.10;58.40
47354;DHT22;50657;48.830;2.282;2022-10-20T12:00:59;26.20;58.50
47354;DHT22;50657;48.830;2.282;2022-10-20T12:03:58;26.20;58.40
47354;DHT22;50657;48.830;2.282;2022-10-20T12:06:56;26.30;58.40
47354;DHT22;50657;48.830;2.282;2022-10-20T12:09:50;26.30;58.40
47354;DHT22;50657;48.830;2.282;2022-10-20T12:12:25;26.30;58.40
47354;DHT22;50657;48.830;2.282;2022-10-20T12:14:56;26.30;58.40
47354;DHT22;50657;48.830;2.282;2022-10-20T12:17:33;26.40;58.40
47354;DHT22;50657;48.830;2.282;2022-10-20T12:32:50;26.50;58.10
47354;DHT22;50657;48.830;2.282;2022-10-20T12:35:56;26.50;58.20
47354;DHT22;50657;48.830;2.282;2022-10-20T12:38:23;26.50;58.10
47354;DHT22;50657;48.830;2.282;2022-10-20T12:40:54;26.50;58.20
47354;DHT22;50657;48.830;2.282;2022-10-20T12:43:31;26.60;58.00
47354;DHT22;50657;48.830;2.282;2022-10-20T12:46:08;26.60;57.90
47354;DHT22;50657;48.830;2.282;2022-10-20T12:48:42;26.70;57.90
47354;DHT22;50657;48.830;2.282;2022-10-20T12:51:23;26.70;57.80
47354;DHT22;50657;48.830;2.282;2022-10-20T12:53:55;26.70;55.50
47354;DHT22;50657;48.830;2.282;2022-10-20T12:56:27;26.70;54.20
47354;DHT22;50657;48.830;2.282;2022-10-20T12:59:19;26.60;53.20
47354;DHT22;50657;48.830;2.282;2022-10-20T13:05:41;26.60;52.60
47354;DHT22;50657;48.830;2.282;2022-10-20T13:08:27;26.60;52.20
47354;DHT22;50657;48.830;2.282;2022-10-20T13:10:55;26.70;51.50
47354;DHT22;50657;48.830;2.282;2022-10-20T13:13:47;26.60;51.40
47354;DHT22;50657;48.830;2.282;2022-10-20T13:16:20;26.70;50.90
47354;DHT22;50657;48.830;2.282;2022-10-20T13:18:49;26.70;50.70
47354;DHT22;50657;48.830;2.282;2022-10-20T13:21:27;26.70;50.70
47354;DHT22;50657;48.830;2.282;2022-10-20T13:24:01;26.70;50.40
47354;DHT22;50657;48.830;2.282;2022-10-20T13:26:30;26.80;50.50
47354;DHT22;50657;48.830;2.282;2022-10-20T13:28:59;26.80;50.20
47354;DHT22;50657;48.830;2.282;2022-10-20T13:31:30;26.90;50.10
47354;DHT22;50657;48.830;2.282;2022-10-20T13:34:05;27.00;49.70
47354;DHT22;50657;48.830;2.282;2022-10-20T13:36:48;27.00;49.40
47354;DHT22;50657;48.830;2.282;2022-10-20T13:39:22;27.10;49.40
47354;DHT22;50657;48.830;2.282;2022-10-20T13:42:00;27.10;49.20
47354;DHT22;50657;48.830;2.282;2022-10-20T13:44:37;27.20;49.20
47354;DHT22;50657;48.830;2.282;2022-10-20T13:47:16;27.30;49.20
47354;DHT22;50657;48.830;2.282;2022-10-20T13:49:56;27.30;49.10
47354;DHT22;50657;48.830;2.282;2022-10-20T13:52:27;27.40;49.00
47354;DHT22;50657;48.830;2.282;2022-10-20T13:54:58;27.40;49.30
47354;DHT22;50657;48.830;2.282;2022-10-20T13:57:26;27.50;49.00
47354;DHT22;50657;48.830;2.282;2022-10-20T13:59:57;27.60;48.60
47354;DHT22;50657;48.830;2.282;2022-10-20T14:02:27;27.70;48.50
47354;DHT22;50657;48.830;2.282;2022-10-20T14:05:06;27.80;48.20
47354;DHT22;50657;48.830;2.282;2022-10-20T14:07:39;27.90;48.10
47354;DHT22;50657;48.830;2.282;2022-10-20T14:10:19;28.00;47.90
47354;DHT22;50657;48.830;2.282;2022-10-20T14:12:47;28.10;47.80
47354;DHT22;50657;48.830;2.282;2022-10-20T14:15:18;28.10;47.70
47354;DHT22;50657;48.830;2.282;2022-10-20T14:17:54;28.20;47.60
47354;DHT22;50657;48.830;2.282;2022-10-20T14:20:22;28.30;47.40
47354;DHT22;50657;48.830;2.282;2022-10-20T14:22:50;28.40;47.10
47354;DHT22;50657;48.830;2.282;2022-10-20T14:25:20;28.40;46.70
47354;DHT22;50657;48.830;2.282;2022-10-20T14:27:47;28.50;46.50
47354;DHT22;50657;48.830;2.282;2022-10-20T14:30:17;28.50;46.40
47354;DHT22;50657;48.830;2.282;2022-10-20T14:32:45;28.50;46.20
47354;DHT22;50657;48.830;2.282;2022-10-20T14:35:23;28.50;46.10
47354;DHT22;50657;48.830;2.282;2022-10-20T14:37:56;28.50;46.10
47354;DHT22;50657;48.830;2.282;2022-10-20T14:40:26;28.50;46.60
47354;DHT22;50657;48.830;2.282;2022-10-20T14:43:01;28.50;46.10
47354;DHT22;50657;48.830;2.282;2022-10-20T14:45:29;28.50;46.30
47354;DHT22;50657;48.830;2.282;2022-10-20T14:47:58;28.50;46.50
47354;DHT22;50657;48.830;2.282;2022-10-20T14:50:31;28.50;46.10
47354;DHT22;50657;48.830;2.282;2022-10-20T14:53:26;28.50;45.90
47354;DHT22;50657;48.830;2.282;2022-10-20T14:55:55;28.50;45.90
47354;DHT22;50657;48.830;2.282;2022-10-20T14:58:31;28.50;46.00
47354;DHT22;50657;48.830;2.282;2022-10-20T15:01:26;28.40;46.00
47354;DHT22;50657;48.830;2.282;2022-10-20T15:04:13;28.40;46.20
47354;DHT22;50657;48.830;2.282;2022-10-20T15:06:41;28.40;46.40
47354;DHT22;50657;48.830;2.282;2022-10-20T15:09:17;28.30;46.70
47354;DHT22;50657;48.830;2.282;2022-10-20T15:11:45;28.30;46.90
47354;DHT22;50657;48.830;2.282;2022-10-20T15:14:13;28.20;47.00
47354;DHT22;50657;48.830;2.282;2022-10-20T15:16:43;28.20;47.20
47354;DHT22;50657;48.830;2.282;2022-10-20T15:19:11;28.20;47.30
47354;DHT22;50657;48.830;2.282;2022-10-20T15:21:44;28.20;46.70
47354;DHT22;50657;48.830;2.282;2022-10-20T15:24:11;28.20;46.40
47354;DHT22;50657;48.830;2.282;2022-10-20T15:26:39;28.10;46.30
47354;DHT22;50657;48.830;2.282;2022-10-20T15:29:06;28.00;46.40
47354;DHT22;50657;48.830;2.282;2022-10-20T15:31:34;28.00;46.50
47354;DHT22;50657;48.830;2.282;2022-10-20T15:34:01;27.80;46.60
47354;DHT22;50657;48.830;2.282;2022-10-20T15:36:30;27.80;46.80
47354;DHT22;50657;48.830;2.282;2022-10-20T15:38:59;27.60;47.00
47354;DHT22;50657;48.830;2.282;2022-10-20T15:41:27;27.50;47.30
47354;DHT22;50657;48.830;2.282;2022-10-20T15:44:02;27.40;47.50
47354;DHT22;50657;48.830;2.282;2022-10-20T15:46:30;27.30;47.70
47354;DHT22;50657;48.830;2.282;2022-10-20T15:48:57;27.20;48.00
47354;DHT22;50657;48.830;2.282;2022-10-20T15:51:26;27.10;48.20
47354;DHT22;50657;48.830;2.282;2022-10-20T15:53:54;27.00;48.40
47354;DHT22;50657;48.830;2.282;2022-10-20T15:56:21;26.90;48.60
47354;DHT22;50657;48.830;2.282;2022-10-20T15:58:49;26.80;48.90
47354;DHT22;50657;48.830;2.282;2022-10-20T16:01:18;26.80;49.30
47354;DHT22;50657;48.830;2.282;2022-10-20T16:03:46;26.70;49.50
47354;DHT22;50657;48.830;2.282;2022-10-20T16:06:15;26.70;49.90
47354;DHT22;50657;48.830;2.282;2022-10-20T16:08:44;26.70;50.30
47354;DHT22;50657;48.830;2.282;2022-10-20T16:11:12;26.70;50.60